KWMC/WMC METAR and TAF weather

Enter ICAO airport designator
Station Type Date Time Source
KWMC METAR 2019/09/21 20:56 UTC NOAA

KWMC 212056Z AUTO VRB04KT 10SM CLR 19/02 A3013 RMK AO2 SLP181 T01940017 58019


Station Type Date Time Source
KWMC Decoded METAR 2019/09/21 20:56 UTC NOAA

WINNEMUCCA MUNICIPAL AIRPORT, NV, United States (KWMC) 40-54N 117-48W 1310M
Sep 21, 2019 - 04:56 PM EDT / 2019.09.21 2056 UTC
Wind: Variable at 5 MPH (4 KT):0
Visibility: 10 mile(s):0
Sky conditions: clear
Temperature: 66.9 F (19.4 C)
Dew Point: 35.1 F (1.7 C)
Relative Humidity: 30%
Pressure (altimeter): 30.13 in. Hg (1020 hPa)
Pressure tendency: 0.06 inches (1.9 hPa) lower than three hours ago
ob: KWMC 212056Z AUTO VRB04KT 10SM CLR 19/02 A3013 RMK AO2 SLP181 T01940017 58019
cycle: 21

Station Type Date Time Source
KWMC TAF 2019/09/21 18:30 UTC NOAA

TAF KWMC 211727Z 2118/2218 03004KT P6SM SKC
FM220300 13004KT P6SM SKC

Example: see airport list